Time;durP1;ratioP1;P1;durP2;ratioP2;P2;SDS_P1;SDS_P2;PMS_P1;PMS_P2;Temp;Humidity;BMP_temperature;BMP_pressure;BME280_temperature;BME280_humidity;BME280_pressure;Samples;Min_cycle;Max_cycle;Signal;HPM_P1;HPM_P2
2024/04/03 00:00:52;;;;;;;0.60;0.60;;;;;;;15.11;36.03;96698.75;4983971;28;20054;-61
2024/04/03 00:03:18;;;;;;;0.60;0.60;;;;;;;14.47;36.80;96583.19;4984174;28;20059;-61
2024/04/03 00:05:44;;;;;;;0.60;0.60;;;;;;;15.00;36.24;96672.91;4983842;28;20165;-63
2024/04/03 00:08:10;;;;;;;0.63;0.63;;;;;;;15.06;35.94;96718.69;4984338;28;20169;-61
2024/04/03 00:10:35;;;;;;;0.60;0.60;;;;;;;14.64;37.36;96671.50;4984407;28;20553;-62
2024/04/03 00:13:01;;;;;;;0.60;0.60;;;;;;;14.43;38.63;96679.97;4984301;28;20409;-61
2024/04/03 00:15:27;;;;;;;0.60;0.60;;;;;;;14.25;38.62;96657.75;4984925;28;20121;-61
2024/04/03 00:17:56;;;;;;;0.60;0.60;;;;;;;14.55;37.70;96699.03;5001325;28;20054;-61
2024/04/03 00:20:23;;;;;;;0.50;0.50;;;;;;;14.51;37.44;96704.59;5017636;28;20457;-61
2024/04/03 00:22:50;;;;;;;0.60;0.60;;;;;;;14.43;37.69;96702.25;4983998;28;20540;-61
2024/04/03 00:25:17;;;;;;;0.60;0.60;;;;;;;14.42;37.83;96711.81;4984141;28;20050;-61
2024/04/03 00:27:43;;;;;;;0.60;0.60;;;;;;;13.87;37.42;96624.41;5000542;28;20057;-61
2024/04/03 00:30:09;;;;;;;0.55;0.55;;;;;;;14.32;37.61;96707.09;4983717;28;20445;-61
2024/04/03 00:32:35;;;;;;;0.60;0.60;;;;;;;14.19;37.60;96703.09;4983808;28;20101;-60
2024/04/03 00:35:01;;;;;;;0.50;0.50;;;;;;;13.95;37.58;96664.94;4982921;28;20581;-62
2024/04/03 00:37:29;;;;;;;0.60;0.60;;;;;;;14.11;38.41;96707.91;4983991;28;20065;-60
2024/04/03 00:39:56;;;;;;;0.60;0.60;;;;;;;13.97;38.60;96707.94;4983404;28;20069;-61
2024/04/03 00:42:24;;;;;;;0.60;0.60;;;;;;;14.04;37.92;96713.47;5000210;28;20058;-61
2024/04/03 00:44:50;;;;;;;0.60;0.60;;;;;;;14.10;37.52;96716.66;5000065;28;20054;-61
2024/04/03 00:47:17;;;;;;;0.60;0.60;;;;;;;13.78;37.86;96674.13;4984189;28;20054;-60
2024/04/03 00:49:44;;;;;;;0.50;0.50;;;;;;;13.75;37.22;96677.72;4983182;28;20054;-61
2024/04/03 00:52:14;;;;;;;0.50;0.50;;;;;;;14.13;37.45;96727.78;4983327;28;20122;-62
2024/04/03 00:54:41;;;;;;;0.60;0.60;;;;;;;13.74;38.31;96681.72;4999532;28;20050;-63
2024/04/03 00:57:08;;;;;;;0.60;0.60;;;;;;;13.95;nan;96724.22;4983766;28;20046;-60
2024/04/03 00:59:34;;;;;;;0.60;0.60;;;;;;;13.58;38.86;96691.25;4982328;28;20451;-62
2024/04/03 01:02:00;;;;;;;0.60;0.60;;;;;;;13.78;39.04;96738.16;4999811;28;20054;-60
2024/04/03 01:04:26;;;;;;;0.50;0.50;;;;;;;13.70;39.14;96720.69;4983462;28;20054;-60
2024/04/03 01:06:52;;;;;;;0.60;0.60;;;;;;;13.29;39.65;96645.13;4983669;28;20092;-61
2024/04/03 01:09:18;;;;;;;0.60;0.60;;;;;;;13.81;38.63;96743.75;4989316;28;20176;-62
2024/04/03 01:11:46;;;;;;;0.60;0.60;;;;;;;13.11;39.10;96644.34;4982918;28;20054;-61
2024/04/03 01:14:12;;;;;;;0.60;0.60;;;;;;;13.68;38.81;96739.75;4999117;28;20058;-60
2024/04/03 01:16:40;;;;;;;0.60;0.60;;;;;;;13.60;39.31;96730.63;4983331;28;20062;-62
2024/04/03 01:19:06;;;;;;;0.60;0.60;;;;;;;13.14;40.00;96696.41;4982683;28;20054;-61
2024/04/03 01:21:32;;;;;;;0.60;0.60;;;;;;;13.50;40.18;96741.72;4983238;28;20058;-60
2024/04/03 01:23:57;;;;;;;0.60;0.60;;;;;;;13.38;40.77;96740.16;4983568;28;20100;-60
2024/04/03 01:26:25;;;;;;;0.60;0.60;;;;;;;13.38;40.49;96739.34;4989400;28;20061;-61
2024/04/03 01:28:51;;;;;;;0.60;0.60;;;;;;;13.27;41.19;96747.69;4984144;28;20096;-60
2024/04/03 01:31:16;;;;;;;0.68;0.68;;;;;;;12.81;41.81;96715.34;4999324;28;20581;-61
2024/04/03 01:33:42;;;;;;;0.60;0.60;;;;;;;12.89;42.34;96759.47;4982659;28;20061;-62
2024/04/03 01:36:08;;;;;;;0.50;0.50;;;;;;;12.25;42.66;96690.91;4983097;28;20061;-61
2024/04/03 01:38:34;;;;;;;0.50;0.50;;;;;;;12.74;42.05;96746.69;4982328;28;20067;-61
2024/04/03 01:41:00;;;;;;;0.50;0.50;;;;;;;12.39;42.77;96713.22;4982794;28;20054;-62
2024/04/03 01:43:25;;;;;;;0.60;0.60;;;;;;;12.59;42.98;96763.69;4998604;28;20058;-64
2024/04/03 01:45:56;;;;;;;0.50;0.50;;;;;;;12.31;42.88;96714.38;4997784;28;20212;-61
2024/04/03 01:48:22;;;;;;;0.55;0.55;;;;;;;12.64;43.27;96766.91;4981839;28;20537;-61
2024/04/03 01:50:47;;;;;;;0.60;0.60;;;;;;;12.53;43.20;96768.84;4982767;28;20058;-61
2024/04/03 01:53:13;;;;;;;0.60;0.60;;;;;;;12.52;43.21;96772.78;4983156;28;20050;-62
2024/04/03 01:55:39;;;;;;;0.50;0.50;;;;;;;12.44;43.71;96768.38;4999339;28;20054;-61
2024/04/03 01:58:04;;;;;;;0.50;0.50;;;;;;;12.43;44.16;96769.59;4982369;28;20066;-61
2024/04/03 02:00:30;;;;;;;0.50;0.50;;;;;;;12.41;43.63;96766.38;4981983;28;20054;-60
2024/04/03 02:02:56;;;;;;;0.55;0.55;;;;;;;12.39;44.12;96774.34;4982212;28;20058;-61
2024/04/03 02:05:22;;;;;;;0.50;0.50;;;;;;;12.09;44.78;96782.09;4981813;28;20058;-62
2024/04/03 02:07:49;;;;;;;0.60;0.60;;;;;;;11.81;44.94;96754.09;4982306;28;20064;-61
2024/04/03 02:10:15;;;;;;;0.50;0.50;;;;;;;11.77;45.54;96776.31;4982223;28;20050;-61
2024/04/03 02:12:41;;;;;;;0.50;0.50;;;;;;;10.86;45.79;96664.53;4982009;28;20116;-61
2024/04/03 02:15:07;;;;;;;0.50;0.50;;;;;;;11.26;45.55;96721.91;4998521;28;20062;-61
2024/04/03 02:17:33;;;;;;;0.50;0.50;;;;;;;11.25;46.05;96731.41;4981708;28;20064;-60
2024/04/03 02:19:58;;;;;;;0.50;0.50;;;;;;;11.52;46.29;96791.09;4981183;28;20120;-61
2024/04/03 02:22:24;;;;;;;0.50;0.50;;;;;;;11.54;45.94;96788.75;4982737;28;20062;-60
2024/04/03 02:24:50;;;;;;;0.50;0.50;;;;;;;11.05;45.98;96738.38;4982205;28;20325;-60
2024/04/03 02:27:15;;;;;;;0.50;0.50;;;;;;;11.49;45.59;96781.56;4982564;28;20474;-62
2024/04/03 02:29:42;;;;;;;0.50;0.50;;;;;;;11.50;45.69;96804.53;4981968;28;20078;-60
2024/04/03 02:32:08;;;;;;;0.50;0.50;;;;;;;11.40;46.11;96800.50;4981854;28;20054;-60
2024/04/03 02:34:34;;;;;;;0.50;0.50;;;;;;;11.26;46.53;96805.91;4981457;28;20061;-61
2024/04/03 02:36:59;;;;;;;0.50;0.50;;;;;;;11.17;47.05;96796.28;4982095;28;20512;-61
2024/04/03 02:39:25;;;;;;;0.50;0.50;;;;;;;10.94;47.41;96770.72;4981638;28;20112;-61
2024/04/03 02:41:51;;;;;;;0.45;0.45;;;;;;;10.70;47.98;96808.81;4981873;28;20410;-61
2024/04/03 02:44:17;;;;;;;0.50;0.50;;;;;;;10.87;48.11;96807.44;4997323;28;20057;-61
2024/04/03 02:46:42;;;;;;;0.50;0.50;;;;;;;10.86;48.60;96802.28;4981178;28;20051;-61
2024/04/03 02:49:08;;;;;;;0.40;0.40;;;;;;;11.00;48.09;96819.84;4962553;28;20104;-62
2024/04/03 02:51:34;;;;;;;0.50;0.50;;;;;;;10.97;47.97;96803.97;4946076;28;20153;-60
2024/04/03 02:54:00;;;;;;;0.50;0.50;;;;;;;10.97;47.64;96817.06;4962058;28;20133;-60
2024/04/03 02:56:26;;;;;;;0.50;0.50;;;;;;;10.94;47.67;96831.69;4942976;29;20142;-61
2024/04/03 02:58:51;;;;;;;0.50;0.50;;;;;;;10.88;48.06;96838.69;4959025;28;20594;-61
2024/04/03 03:01:17;;;;;;;0.40;0.40;;;;;;;10.75;48.44;96845.69;4958774;28;20056;-60
2024/04/03 03:03:43;;;;;;;0.50;0.50;;;;;;;10.64;48.69;96843.56;4948700;28;20122;-61
2024/04/03 03:06:08;;;;;;;0.50;0.50;;;;;;;10.71;48.40;96845.63;4961834;28;20105;-61
2024/04/03 03:08:34;;;;;;;0.40;0.40;;;;;;;10.50;48.58;96854.44;4962145;28;20066;-61
2024/04/03 03:11:02;;;;;;;0.50;0.50;;;;;;;10.44;48.76;96864.25;4962455;28;20058;-63
2024/04/03 03:13:28;;;;;;;0.47;0.47;;;;;;;10.46;49.03;96861.88;4943514;28;20129;-61
2024/04/03 03:15:55;;;;;;;0.40;0.40;;;;;;;10.46;49.25;96861.88;4945137;28;20050;-63
2024/04/03 03:18:22;;;;;;;0.50;0.50;;;;;;;10.39;49.25;96850.72;4960134;28;20434;-61
2024/04/03 03:20:48;;;;;;;0.50;0.50;;;;;;;10.22;49.57;96831.91;4955173;28;20101;-63
2024/04/03 03:23:15;;;;;;;0.50;0.50;;;;;;;10.53;49.68;96878.63;4961904;28;20113;-61
2024/04/03 03:25:43;;;;;;;0.40;0.40;;;;;;;10.48;48.81;96859.56;4959426;28;20063;-60
2024/04/03 03:28:10;;;;;;;0.50;0.50;;;;;;;10.09;49.32;96796.50;4960995;28;20055;-63
2024/04/03 03:30:35;;;;;;;0.50;0.50;;;;;;;10.57;49.39;96873.91;4961130;28;20059;-61
2024/04/03 03:33:01;;;;;;;0.50;0.50;;;;;;;10.43;49.36;96862.63;4960735;28;20513;-62
2024/04/03 03:35:27;;;;;;;0.50;0.50;;;;;;;10.31;49.99;96860.09;4961634;28;20109;-61
2024/04/03 03:37:53;;;;;;;0.50;0.50;;;;;;;10.21;50.12;96868.25;4961602;28;20055;-61
2024/04/03 03:40:18;;;;;;;0.40;0.40;;;;;;;10.18;50.00;96833.78;4937878;28;20070;-63
2024/04/03 03:42:44;;;;;;;0.50;0.50;;;;;;;7.76;49.77;96447.72;4961396;28;20059;-61
2024/04/03 03:45:18;;;;;;;0.50;0.50;;;;;;;10.44;49.46;96877.28;4922205;28;20063;-62
2024/04/03 03:47:45;;;;;;;0.40;0.40;;;;;;;10.08;49.85;96828.91;4950566;28;20058;-63
2024/04/03 03:52:55;;;;;;;0.50;0.50;;;;;;;10.38;50.28;96879.59;4961505;28;20054;-62
2024/04/03 03:55:21;;;;;;;0.50;0.50;;;;;;;9.94;49.60;96838.94;4961330;28;20093;-62
2024/04/03 03:57:47;;;;;;;0.50;0.50;;;;;;;9.51;50.14;96782.13;4945170;28;20576;-62
2024/04/03 04:00:13;;;;;;;0.47;0.47;;;;;;;9.63;50.21;96817.06;4961198;28;20054;-62
2024/04/03 04:02:39;;;;;;;0.40;0.40;;;;;;;9.97;50.39;96905.41;4961494;28;20422;-62
2024/04/03 04:05:05;;;;;;;0.40;0.40;;;;;;;10.00;50.38;96904.66;4960992;28;20065;-62
2024/04/03 04:07:32;;;;;;;0.40;0.40;;;;;;;10.02;50.87;96918.91;4960316;28;20442;-62
2024/04/03 04:09:58;;;;;;;0.40;0.40;;;;;;;9.16;52.95;96920.47;4962956;28;20423;-61
2024/04/03 04:12:24;;;;;;;0.40;0.40;;;;;;;9.28;53.19;96900.16;4964153;28;20141;-62
2024/04/03 04:14:51;;;;;;;0.40;0.40;;;;;;;9.54;52.14;96940.94;4947921;28;20051;-61
2024/04/03 04:17:18;;;;;;;0.40;0.40;;;;;;;9.27;51.81;96884.75;4964054;28;20493;-62
2024/04/03 04:19:45;;;;;;;0.40;0.40;;;;;;;9.75;51.71;96941.34;4964096;28;20517;-61
2024/04/03 04:22:10;;;;;;;0.40;0.40;;;;;;;9.81;52.31;96946.22;4964586;28;20055;-62
2024/04/03 04:24:38;;;;;;;0.40;0.40;;;;;;;9.85;51.91;96952.59;4964273;28;20066;-61
2024/04/03 04:27:07;;;;;;;0.40;0.40;;;;;;;9.69;51.76;96959.41;4964984;28;20050;-63
2024/04/03 04:29:40;;;;;;;0.45;0.45;;;;;;;9.82;51.93;96958.88;4964288;28;20113;-61
2024/04/03 04:32:10;;;;;;;0.50;0.50;;;;;;;9.86;51.92;96954.22;4948786;28;20442;-61
2024/04/03 04:34:39;;;;;;;0.43;0.43;;;;;;;9.88;52.08;96962.91;4962163;28;20050;-61
2024/04/03 04:37:05;;;;;;;0.40;0.40;;;;;;;9.95;52.06;96965.84;4948010;28;20051;-58
2024/04/03 04:39:32;;;;;;;0.40;0.40;;;;;;;9.93;51.97;96989.47;4975924;28;20070;-61
2024/04/03 04:41:58;;;;;;;0.45;0.45;;;;;;;9.95;51.38;96974.13;4945037;29;20070;-60
2024/04/03 04:44:23;;;;;;;0.50;0.50;;;;;;;10.12;51.24;96983.94;4987455;28;20059;-60
2024/04/03 04:46:50;;;;;;;0.40;0.40;;;;;;;9.84;51.14;97022.94;4963326;28;20146;-62
2024/04/03 04:49:17;;;;;;;0.47;0.47;;;;;;;9.91;51.32;96906.84;4963364;28;20070;-62
2024/04/03 04:51:43;;;;;;;0.50;0.50;;;;;;;10.49;50.56;96982.22;4962723;28;20059;-61
2024/04/03 04:54:12;;;;;;;0.50;0.50;;;;;;;10.61;50.14;96990.31;4947497;28;20427;-61
2024/04/03 04:56:38;;;;;;;0.50;0.50;;;;;;;10.68;50.32;96984.88;4947349;28;20065;-61
2024/04/03 04:59:05;;;;;;;0.50;0.50;;;;;;;10.88;50.86;96977.25;4994100;28;20059;-62
2024/04/03 05:01:40;;;;;;;0.50;0.50;;;;;;;11.13;49.82;96981.19;4963907;28;20059;-61
2024/04/03 05:04:07;;;;;;;0.50;0.50;;;;;;;10.80;49.73;96936.75;4963229;28;20050;-60
2024/04/03 05:06:33;;;;;;;0.50;0.50;;;;;;;11.30;49.31;96984.19;4962748;28;20154;-60
2024/04/03 05:08:59;;;;;;;0.50;0.50;;;;;;;11.41;48.70;96973.25;4961688;28;20533;-60
2024/04/03 05:11:25;;;;;;;0.50;0.50;;;;;;;11.57;48.32;96982.16;4962232;28;20305;-60
2024/04/03 05:13:51;;;;;;;0.50;0.50;;;;;;;11.25;47.78;96942.13;4960181;28;20061;-59
2024/04/03 05:16:20;;;;;;;0.50;0.50;;;;;;;11.61;47.62;97010.75;4961250;28;20051;-59
2024/04/03 05:18:46;;;;;;;0.50;0.50;;;;;;;11.79;47.63;96990.38;4960456;28;20065;-59
2024/04/03 05:21:13;;;;;;;0.50;0.50;;;;;;;11.76;47.55;96973.69;4931874;28;20048;-60
2024/04/03 05:23:38;;;;;;;0.50;0.50;;;;;;;12.00;47.48;96978.69;4961386;28;20082;-59
2024/04/03 05:26:06;;;;;;;0.50;0.50;;;;;;;11.95;48.51;96987.38;4961406;28;20059;-59
2024/04/03 05:28:35;;;;;;;0.50;0.50;;;;;;;12.23;49.16;96998.78;4963088;28;20054;-60
2024/04/03 05:31:18;;;;;;;0.50;0.50;;;;;;;12.47;49.33;96998.19;4963288;28;20054;-60
2024/04/03 05:33:44;;;;;;;0.52;0.52;;;;;;;12.48;48.88;96972.03;4962182;28;20125;-59
2024/04/03 05:36:11;;;;;;;0.60;0.60;;;;;;;11.79;48.12;96845.28;4962369;28;20095;-61
2024/04/03 05:38:41;;;;;;;0.60;0.60;;;;;;;12.73;47.85;96984.13;4956983;28;20066;-61
2024/04/03 05:41:10;;;;;;;0.50;0.50;;;;;;;12.79;47.95;96965.91;4960403;28;20450;-72
2024/04/03 05:43:37;;;;;;;0.50;0.50;;;;;;;13.45;47.31;97006.47;4959330;28;20061;-61
2024/04/03 05:46:03;;;;;;;0.60;0.60;;;;;;;13.76;46.61;97013.38;4960364;28;20109;-68
2024/04/03 05:48:29;;;;;;;0.60;0.60;;;;;;;13.88;46.15;96999.13;4961638;28;20054;-71
2024/04/03 05:51:03;;;;;;;0.60;0.60;;;;;;;13.88;45.96;96943.44;4962424;28;20860;-62
2024/04/03 05:53:30;;;;;;;0.60;0.60;;;;;;;14.27;45.50;96974.97;4961889;28;20540;-64
2024/04/03 05:55:58;;;;;;;0.60;0.60;;;;;;;14.22;45.36;96931.53;4960899;28;20067;-66
2024/04/03 05:58:25;;;;;;;0.60;0.60;;;;;;;14.34;44.68;96938.72;4993662;28;20054;-74
2024/04/03 06:00:52;;;;;;;0.60;0.60;;;;;;;15.35;44.12;97015.16;4960594;28;20087;-64
2024/04/03 06:03:18;;;;;;;0.70;0.70;;;;;;;15.18;43.32;96933.88;4961965;28;20061;-61
2024/04/03 06:05:45;;;;;;;0.70;0.70;;;;;;;15.89;42.20;97015.41;4965541;28;20062;-61
2024/04/03 06:08:11;;;;;;;0.70;0.70;;;;;;;16.09;41.96;97010.91;4964254;28;20080;-69
2024/04/03 06:10:38;;;;;;;0.60;0.60;;;;;;;16.27;41.18;97011.63;4957527;28;20063;-63
2024/04/03 06:13:05;;;;;;;0.80;0.80;;;;;;;16.25;40.73;96974.91;4938625;28;20254;-65
2024/04/03 06:15:32;;;;;;;0.60;0.60;;;;;;;16.72;41.43;97015.38;4990190;28;20062;-63
2024/04/03 06:17:58;;;;;;;0.60;0.60;;;;;;;16.82;39.51;97019.28;4962888;28;20246;-62
2024/04/03 06:20:23;;;;;;;0.70;0.70;;;;;;;17.02;39.47;97017.53;4960311;28;20567;-64
2024/04/03 06:22:49;;;;;;;0.80;0.80;;;;;;;17.22;39.46;97016.53;4963784;28;20055;-62
2024/04/03 06:25:16;;;;;;;0.70;0.70;;;;;;;15.45;38.79;96710.88;4968703;28;20055;-67
2024/04/03 06:27:43;;;;;;;0.80;0.80;;;;;;;17.09;39.04;96972.66;4970847;28;20575;-63
2024/04/03 06:30:09;;;;;;;0.80;0.80;;;;;;;17.56;38.51;97013.84;4962269;28;20050;-71
2024/04/03 06:32:35;;;;;;;0.80;0.80;;;;;;;17.69;38.36;97028.88;4974856;28;20066;-73
2024/04/03 06:35:01;;;;;;;0.80;0.80;;;;;;;17.62;38.28;97023.38;4960589;28;20482;-73
2024/04/03 06:37:26;;;;;;;0.70;0.70;;;;;;;17.65;37.95;97016.94;4968273;28;20054;-67
2024/04/03 06:39:52;;;;;;;0.70;0.70;;;;;;;17.84;38.16;97024.72;4967986;28;20062;-62
2024/04/03 06:42:18;;;;;;;0.70;0.70;;;;;;;17.84;37.42;96985.47;4959127;28;20110;-63
2024/04/03 06:44:44;;;;;;;0.80;0.80;;;;;;;16.19;36.95;96741.78;4961775;28;20050;-73
2024/04/03 06:47:09;;;;;;;0.80;0.80;;;;;;;17.22;37.36;96909.34;4960648;28;20600;-71
2024/04/03 06:49:35;;;;;;;0.77;0.77;;;;;;;17.31;37.00;96890.06;4946883;28;20110;-64
2024/04/03 06:52:01;;;;;;;0.80;0.80;;;;;;;18.25;36.92;97039.41;4960357;28;20564;-71
2024/04/03 06:54:27;;;;;;;0.90;0.90;;;;;;;18.04;36.25;97034.06;4961721;28;20503;-67
2024/04/03 06:56:53;;;;;;;0.75;0.75;;;;;;;17.99;35.52;96998.09;4944435;28;20085;-68
2024/04/03 06:59:19;;;;;;;0.80;0.80;;;;;;;18.04;35.57;96972.41;4960190;28;20058;-66
2024/04/03 07:01:44;;;;;;;0.85;0.85;;;;;;;16.41;35.96;96712.38;4961473;28;20061;-69
2024/04/03 07:04:10;;;;;;;0.80;0.80;;;;;;;18.48;35.68;97003.06;4963076;28;20175;-72
2024/04/03 07:06:37;;;;;;;0.77;0.77;;;;;;;18.43;35.64;97034.38;4960224;28;20055;-65
2024/04/03 07:09:04;;;;;;;0.80;0.80;;;;;;;17.93;35.33;96961.34;4963755;28;20058;-68
2024/04/03 07:11:31;;;;;;;0.80;0.80;;;;;;;18.28;35.51;96971.28;4939856;28;20055;-71
2024/04/03 07:13:57;;;;;;;0.80;0.80;;;;;;;18.79;35.54;97040.28;4977453;28;20051;-62
2024/04/03 07:16:24;;;;;;;0.80;0.80;;;;;;;18.62;34.37;97042.13;4952842;28;20055;-68
2024/04/03 07:18:54;;;;;;;0.90;0.90;;;;;;;18.08;34.82;96959.16;4943668;28;20066;-70
2024/04/03 07:21:20;;;;;;;0.80;0.80;;;;;;;18.57;35.37;97042.63;4992220;28;20062;-61
2024/04/03 07:23:46;;;;;;;0.80;0.80;;;;;;;18.81;34.86;97043.47;4996968;28;20057;-72
2024/04/03 07:26:12;;;;;;;0.80;0.80;;;;;;;18.39;35.18;97000.00;4961016;28;20501;-69
2024/04/03 07:28:38;;;;;;;0.80;0.80;;;;;;;18.42;35.14;97038.41;4949970;28;20093;-69
2024/04/03 07:31:04;;;;;;;0.80;0.80;;;;;;;18.69;35.59;97047.66;4945192;28;20051;-60
2024/04/03 07:33:29;;;;;;;0.80;0.80;;;;;;;18.13;35.59;97036.38;4993387;28;20118;-71
2024/04/03 07:35:55;;;;;;;0.80;0.80;;;;;;;17.89;35.84;97041.06;4960724;28;20069;-70
2024/04/03 07:38:21;;;;;;;0.80;0.80;;;;;;;18.51;35.74;97035.88;4965801;28;20054;-66
2024/04/03 07:40:54;;;;;;;0.80;0.80;;;;;;;18.86;35.16;97026.13;4973292;28;20541;-69
2024/04/03 07:43:20;;;;;;;0.90;0.90;;;;;;;18.12;35.04;96912.22;4990094;28;20062;-72
2024/04/03 07:45:46;;;;;;;0.70;0.70;;;;;;;18.36;34.67;96927.88;4994973;28;20051;-70
2024/04/03 07:48:12;;;;;;;0.85;0.85;;;;;;;18.99;34.25;96987.81;4952844;28;20434;-61
2024/04/03 07:50:41;;;;;;;0.75;0.75;;;;;;;19.07;34.07;97000.53;4964905;28;20816;-64
2024/04/03 07:53:07;;;;;;;0.90;0.90;;;;;;;19.14;32.65;96983.56;4963360;28;20113;-70
2024/04/03 07:55:37;;;;;;;0.80;0.80;;;;;;;19.41;32.88;97004.75;4950836;28;20140;-66
2024/04/03 07:58:03;;;;;;;0.70;0.70;;;;;;;19.17;32.69;96985.50;4965377;28;20043;-67
2024/04/03 08:00:29;;;;;;;0.90;0.90;;;;;;;18.74;32.34;96892.03;4970744;28;20055;-71
2024/04/03 08:02:54;;;;;;;0.90;0.90;;;;;;;19.50;32.47;96990.16;4946000;28;20069;-70
2024/04/03 08:05:20;;;;;;;0.88;0.88;;;;;;;17.62;32.39;96720.81;4957114;28;20537;-67
2024/04/03 08:07:46;;;;;;;0.80;0.80;;;;;;;19.16;33.17;97015.59;4963548;28;20139;-63
2024/04/03 08:10:12;;;;;;;0.90;0.90;;;;;;;18.92;32.65;96954.28;4970684;28;20055;-67
2024/04/03 08:12:39;;;;;;;0.90;0.90;;;;;;;19.67;32.52;97033.97;4964083;28;20129;-70
2024/04/03 08:15:11;;;;;;;0.90;0.90;;;;;;;19.40;32.94;97031.28;5013632;28;20350;-62
2024/04/03 08:17:38;;;;;;;0.80;0.80;;;;;;;19.22;33.41;97039.16;4960036;28;20118;-73
2024/04/03 08:20:04;;;;;;;0.80;0.80;;;;;;;19.13;33.75;97022.06;4965025;28;20066;-64
2024/04/03 08:22:30;;;;;;;0.98;0.98;;;;;;;19.31;33.38;96991.72;4964245;28;20174;-64
2024/04/03 08:24:57;;;;;;;0.80;0.80;;;;;;;19.17;33.23;96937.78;4963679;28;20534;-63
2024/04/03 08:27:22;;;;;;;0.90;0.90;;;;;;;19.47;33.39;96997.41;4964015;28;20066;-64
2024/04/03 08:29:49;;;;;;;0.90;0.90;;;;;;;20.01;33.37;97025.31;4965529;28;20066;-66
2024/04/03 08:32:16;;;;;;;0.90;0.90;;;;;;;19.61;33.03;96954.22;4964461;28;20085;-71
2024/04/03 08:34:42;;;;;;;0.82;0.82;;;;;;;20.01;32.88;97019.69;4946825;28;20051;-62
2024/04/03 08:37:10;;;;;;;0.93;0.93;;;;;;;20.17;32.69;97019.78;4983935;28;20055;-72
2024/04/03 08:39:36;;;;;;;0.90;0.90;;;;;;;19.57;32.74;96930.22;4944386;28;20055;-68
2024/04/03 08:42:02;;;;;;;0.90;0.90;;;;;;;20.05;32.71;96969.75;4962566;28;20117;-66
2024/04/03 08:44:31;;;;;;;0.90;0.90;;;;;;;20.34;32.38;97016.59;4963335;28;20070;-65
2024/04/03 08:46:58;;;;;;;0.80;0.80;;;;;;;20.34;32.11;97012.97;4963959;28;20059;-70
2024/04/03 08:49:32;;;;;;;0.90;0.90;;;;;;;20.41;31.97;97021.25;4961398;28;20055;-62
2024/04/03 08:52:04;;;;;;;0.90;0.90;;;;;;;20.43;32.18;97018.78;4963457;28;20398;-60
2024/04/03 08:54:31;;;;;;;0.95;0.95;;;;;;;20.30;32.37;97013.03;4962370;28;20074;-62
2024/04/03 08:57:00;;;;;;;0.90;0.90;;;;;;;19.41;32.08;96883.94;4963276;28;20446;-68
2024/04/03 08:59:27;;;;;;;0.90;0.90;;;;;;;20.01;32.24;97022.50;4944109;28;20063;-72
2024/04/03 09:01:53;;;;;;;0.80;0.80;;;;;;;19.95;32.23;97010.16;4961720;28;20061;-70
2024/04/03 09:04:20;;;;;;;0.80;0.80;;;;;;;19.36;32.19;96946.25;4945912;28;20098;-62
2024/04/03 09:06:47;;;;;;;0.80;0.80;;;;;;;18.33;32.38;96732.41;4963268;28;20522;-61
2024/04/03 09:09:23;;;;;;;0.70;0.70;;;;;;;19.94;32.40;96997.31;4962103;28;20047;-67
2024/04/03 09:11:50;;;;;;;0.80;0.80;;;;;;;19.45;32.81;97005.50;4993340;28;20051;-77
2024/04/03 09:14:23;;;;;;;0.80;0.80;;;;;;;19.67;32.61;97019.13;4945487;28;20055;-72
2024/04/03 09:16:49;;;;;;;0.80;0.80;;;;;;;19.30;32.60;96897.41;4943874;28;20506;-71
2024/04/03 09:19:15;;;;;;;0.90;0.90;;;;;;;19.77;32.20;96931.00;4951617;28;20326;-69
2024/04/03 09:21:41;;;;;;;0.90;0.90;;;;;;;20.18;32.69;96996.84;4992889;28;20582;-70
2024/04/03 09:24:08;;;;;;;0.80;0.80;;;;;;;20.39;32.26;97013.25;4960747;28;20061;-70
2024/04/03 09:26:42;;;;;;;0.80;0.80;;;;;;;20.58;30.94;97006.00;4978149;28;20066;-67
2024/04/03 09:29:10;;;;;;;0.80;0.80;;;;;;;20.67;31.14;96994.94;4962486;28;20066;-66
2024/04/03 09:31:36;;;;;;;0.90;0.90;;;;;;;20.72;30.73;96974.72;4958693;28;20051;-66
2024/04/03 09:34:03;;;;;;;0.90;0.90;;;;;;;20.28;30.95;96935.94;4962106;28;20089;-71
2024/04/03 09:36:29;;;;;;;0.90;0.90;;;;;;;20.47;30.88;96974.50;4946364;28;20470;-67
2024/04/03 09:38:55;;;;;;;0.90;0.90;;;;;;;20.63;31.52;96988.56;4962687;28;20059;-69
2024/04/03 09:41:21;;;;;;;0.88;0.88;;;;;;;20.21;30.94;96888.28;4962552;28;20059;-69
2024/04/03 09:43:50;;;;;;;0.85;0.85;;;;;;;20.16;30.64;96875.53;4962766;28;20061;-70
2024/04/03 09:46:19;;;;;;;1.00;1.00;;;;;;;21.09;30.49;96987.53;4978764;28;20124;-68
2024/04/03 09:48:50;;;;;;;0.90;0.90;;;;;;;20.58;30.58;96901.88;4962169;28;20058;-70
2024/04/03 09:51:17;;;;;;;0.93;0.93;;;;;;;20.43;30.42;96906.25;4961823;28;20062;-71
2024/04/03 09:53:44;;;;;;;0.90;0.90;;;;;;;21.27;30.36;96966.09;4961801;28;20063;-66
2024/04/03 09:56:15;;;;;;;0.90;0.90;;;;;;;21.32;30.60;96959.94;4977738;28;20059;-67
2024/04/03 09:58:41;;;;;;;0.90;0.90;;;;;;;21.05;28.98;96965.06;4961524;28;20501;-66
2024/04/03 10:01:08;;;;;;;0.90;0.90;;;;;;;20.72;29.03;96895.88;4961461;28;20051;-67
2024/04/03 10:03:37;;;;;;;0.93;0.93;;;;;;;21.10;28.98;96933.56;4961325;28;20587;-65
2024/04/03 10:06:09;;;;;;;0.88;0.88;;;;;;;21.41;30.60;96951.63;4960943;28;20197;-65
2024/04/03 10:08:46;;;;;;;0.80;0.80;;;;;;;20.77;29.69;96847.50;4961691;28;20059;-67
2024/04/03 10:11:18;;;;;;;0.90;0.90;;;;;;;20.59;29.06;96842.31;4961014;28;20078;-68
2024/04/03 10:13:44;;;;;;;0.90;0.90;;;;;;;21.30;29.66;96965.22;4960966;28;20425;-67
2024/04/03 10:16:15;;;;;;;1.00;1.00;;;;;;;20.66;30.28;96897.66;4961450;28;20062;-70
2024/04/03 10:18:52;;;;;;;0.90;0.90;;;;;;;21.16;29.65;96943.03;4961495;28;20451;-67
2024/04/03 10:21:20;;;;;;;1.00;1.00;;;;;;;20.63;30.28;96843.00;4961606;28;20046;-67
2024/04/03 10:23:50;;;;;;;1.00;1.00;;;;;;;21.22;29.85;96913.09;4977745;28;20055;-70
2024/04/03 10:26:19;;;;;;;0.90;0.90;;;;;;;21.18;29.48;96856.06;4961584;28;20050;-71
2024/04/03 10:28:45;;;;;;;0.90;0.90;;;;;;;21.33;30.05;96879.78;4961452;28;20062;-70
2024/04/03 10:31:17;;;;;;;1.10;1.10;;;;;;;21.18;29.82;96849.63;4961007;28;20172;-66
2024/04/03 10:33:42;;;;;;;0.90;0.90;;;;;;;21.81;28.99;96955.78;4977186;28;20066;-70
2024/04/03 10:36:09;;;;;;;1.10;1.10;;;;;;;21.55;29.64;96951.25;4961039;28;20097;-67
2024/04/03 10:38:36;;;;;;;0.90;0.90;;;;;;;21.86;30.03;96948.81;4960854;28;20441;-66
2024/04/03 10:41:05;;;;;;;0.90;0.90;;;;;;;21.54;29.88;96927.13;4960821;28;20065;-70
2024/04/03 10:43:31;;;;;;;1.00;1.00;;;;;;;21.71;28.79;96920.19;4944932;28;20051;-70
2024/04/03 10:45:57;;;;;;;1.00;1.00;;;;;;;22.04;28.80;96947.03;4961619;28;20058;-69
2024/04/03 10:48:23;;;;;;;0.90;0.90;;;;;;;22.06;28.61;96936.09;4977200;28;20060;-70
2024/04/03 10:50:50;;;;;;;0.90;0.90;;;;;;;22.11;28.57;96941.16;4944565;28;20058;-67
2024/04/03 10:53:16;;;;;;;0.88;0.88;;;;;;;20.41;28.43;96638.56;4960722;28;20055;-71
2024/04/03 10:55:45;;;;;;;1.00;1.00;;;;;;;21.98;27.63;96889.59;4960000;28;20058;-67
2024/04/03 10:58:11;;;;;;;1.00;1.00;;;;;;;22.49;27.63;96936.34;4944450;28;20453;-66
2024/04/03 11:00:42;;;;;;;1.08;1.08;;;;;;;22.09;27.47;96892.09;4968567;28;20062;-71
2024/04/03 11:03:09;;;;;;;0.90;0.90;;;;;;;21.84;26.92;96825.16;4944860;28;20055;-68
2024/04/03 11:05:36;;;;;;;0.90;0.90;;;;;;;21.73;28.55;96824.66;4960705;28;20510;-71
2024/04/03 11:08:04;;;;;;;1.00;1.00;;;;;;;22.24;28.63;96899.66;4960489;28;20062;-70
2024/04/03 11:10:30;;;;;;;1.00;1.00;;;;;;;22.39;28.29;96889.50;4962037;28;20635;-71
2024/04/03 11:13:07;;;;;;;1.00;1.00;;;;;;;22.41;28.06;96903.94;4961047;28;20581;-68
2024/04/03 11:15:34;;;;;;;1.10;1.10;;;;;;;22.59;28.73;96885.69;4961040;28;20071;-66
2024/04/03 11:18:00;;;;;;;0.85;0.85;;;;;;;22.05;28.74;96816.00;4961730;28;20438;-70
2024/04/03 11:20:27;;;;;;;1.00;1.00;;;;;;;22.52;28.43;96880.28;4977953;28;20074;-67
2024/04/03 11:22:58;;;;;;;0.95;0.95;;;;;;;22.40;28.16;96879.78;4977589;28;20588;-66
2024/04/03 11:25:28;;;;;;;0.90;0.90;;;;;;;22.66;28.98;96880.59;4963372;28;20058;-66
2024/04/03 11:27:56;;;;;;;0.80;0.80;;;;;;;22.36;27.40;96907.34;4964388;28;20058;-70
2024/04/03 11:30:22;;;;;;;0.90;0.90;;;;;;;22.62;27.73;96901.72;4980668;28;20054;-68
2024/04/03 11:32:49;;;;;;;0.90;0.90;;;;;;;22.51;28.87;96912.56;4964690;28;20047;-68
2024/04/03 11:35:15;;;;;;;0.90;0.90;;;;;;;21.83;29.03;96888.41;4964382;28;20137;-66